createdAt,value
2023-04-16T00:02:28.077Z,69.71
2023-04-16T00:05:15.171Z,69.47
2023-04-16T00:08:02.374Z,69.57
2023-04-16T00:10:49.222Z,69.54
2023-04-16T00:13:36.091Z,69.83
2023-04-16T00:16:23.046Z,69.86
2023-04-16T00:19:10.127Z,69.57
2023-04-16T00:21:57.224Z,69.56
2023-04-16T00:24:44.090Z,69.66
2023-04-16T00:27:30.957Z,69.68
2023-04-16T00:30:17.881Z,69.80
2023-04-16T00:33:04.852Z,69.69
2023-04-16T00:35:51.723Z,69.78
2023-04-16T00:38:38.574Z,69.62
2023-04-16T00:41:26.254Z,69.92
2023-04-16T00:44:13.089Z,69.66
2023-04-16T00:46:59.960Z,69.93
2023-04-16T00:49:46.960Z,69.96
2023-04-16T00:52:34.697Z,69.99
2023-04-16T00:55:22.192Z,70.06
2023-04-16T00:58:09.045Z,69.59
2023-04-16T01:00:56.611Z,69.71
2023-04-16T01:03:46.801Z,69.72
2023-04-16T01:06:33.785Z,69.86
2023-04-16T01:09:20.859Z,69.67
2023-04-16T01:12:07.721Z,69.85
2023-04-16T01:14:54.678Z,69.78
2023-04-16T01:17:41.561Z,69.77
2023-04-16T01:20:29.452Z,69.93
2023-04-16T01:23:18.556Z,69.88
2023-04-16T01:26:05.361Z,69.61
2023-04-16T01:28:52.170Z,69.81
2023-04-16T01:31:39.050Z,69.82
2023-04-16T01:34:25.920Z,69.65
2023-04-16T01:37:12.908Z,69.90
2023-04-16T01:39:59.749Z,69.69
2023-04-16T01:42:46.612Z,70.02
2023-04-16T01:45:34.404Z,69.89
2023-04-16T01:48:21.261Z,69.77
2023-04-16T01:51:08.235Z,69.79
2023-04-16T01:53:55.362Z,69.85
2023-04-16T01:56:42.206Z,69.94
2023-04-16T01:59:29.359Z,70.09
2023-04-16T02:02:16.642Z,69.93
2023-04-16T02:05:03.858Z,69.91
2023-04-16T02:07:50.857Z,69.81
2023-04-16T02:10:37.656Z,69.94
2023-04-16T02:13:26.086Z,69.87
2023-04-16T02:16:12.930Z,69.72
2023-04-16T02:18:59.768Z,69.88
2023-04-16T02:21:46.691Z,70.05
2023-04-16T02:24:33.524Z,69.82
2023-04-16T02:27:20.503Z,70.17
2023-04-16T02:30:08.065Z,69.87
2023-04-16T02:32:55.029Z,69.79
2023-04-16T02:35:42.008Z,69.82
2023-04-16T02:38:28.857Z,70.06
2023-04-16T02:41:15.922Z,69.95
2023-04-16T02:44:02.720Z,70.16
2023-04-16T02:46:49.620Z,70.05
2023-04-16T02:49:36.564Z,70.10
2023-04-16T02:52:23.454Z,69.58
2023-04-16T02:55:11.159Z,69.96
2023-04-16T02:57:58.040Z,69.92
2023-04-16T03:00:45.018Z,69.69
2023-04-16T03:03:31.872Z,69.82
2023-04-16T03:06:18.713Z,69.85
2023-04-16T03:09:05.749Z,69.82
2023-04-16T03:11:52.601Z,70.00
2023-04-16T03:14:39.492Z,70.13
2023-04-16T03:17:26.328Z,69.86
2023-04-16T03:20:14.469Z,69.75
2023-04-16T03:23:01.527Z,69.86
2023-04-16T03:25:48.387Z,69.56
2023-04-16T03:28:35.340Z,69.98
2023-04-16T03:31:24.477Z,69.85
2023-04-16T03:34:11.396Z,70.07
2023-04-16T03:36:58.446Z,70.21
2023-04-16T03:39:45.543Z,69.90
2023-04-16T03:42:32.367Z,70.06
2023-04-16T03:45:19.224Z,69.92
2023-04-16T03:48:06.480Z,70.04
2023-04-16T03:50:53.293Z,69.97
2023-04-16T03:53:40.140Z,69.87
2023-04-16T03:56:26.975Z,70.39
2023-04-16T03:59:13.819Z,70.11
2023-04-16T04:02:00.870Z,70.14
2023-04-16T04:04:48.326Z,69.87
2023-04-16T04:07:35.333Z,70.37
2023-04-16T04:10:22.195Z,70.13
2023-04-16T04:13:09.574Z,70.36
2023-04-16T04:15:56.612Z,70.09
2023-04-16T04:18:44.575Z,70.28
2023-04-16T04:21:32.007Z,69.95
2023-04-16T04:24:18.871Z,69.98
2023-04-16T04:27:05.801Z,70.13
2023-04-16T04:29:53.192Z,70.26
2023-04-16T04:32:40.120Z,69.82
2023-04-16T04:35:27.092Z,70.37
2023-04-16T04:38:16.146Z,70.24
2023-04-16T04:41:03.286Z,70.33
2023-04-16T04:43:50.209Z,70.53
2023-04-16T04:46:37.085Z,70.18
2023-04-16T04:49:23.934Z,70.13
2023-04-16T04:52:11.567Z,70.43
2023-04-16T04:54:58.482Z,70.29
2023-04-16T04:57:45.422Z,70.49
2023-04-16T05:00:33.508Z,70.70
2023-04-16T05:03:21.840Z,70.50
2023-04-16T05:06:08.844Z,70.77
2023-04-16T05:08:55.682Z,70.66
2023-04-16T05:11:42.478Z,70.35
2023-04-16T05:14:29.346Z,70.40
2023-04-16T05:17:16.428Z,70.35
2023-04-16T05:20:03.364Z,70.35
2023-04-16T05:22:51.132Z,70.28
2023-04-16T05:25:37.983Z,70.30
2023-04-16T05:28:24.779Z,70.55
2023-04-16T05:31:11.765Z,70.25
2023-04-16T05:33:58.642Z,70.22
2023-04-16T05:36:45.972Z,70.47
2023-04-16T05:39:32.802Z,70.46
2023-04-16T05:42:19.729Z,70.08
2023-04-16T05:45:07.221Z,70.25
2023-04-16T05:47:54.171Z,70.41
2023-04-16T05:50:41.024Z,70.33
2023-04-16T05:53:27.837Z,70.32
2023-04-16T05:56:14.718Z,70.31
2023-04-16T05:59:01.639Z,70.13
2023-04-16T06:01:48.531Z,70.10
2023-04-16T06:04:35.985Z,70.57
2023-04-16T06:07:22.859Z,70.08
2023-04-16T06:10:12.517Z,70.22
2023-04-16T06:12:59.474Z,70.51
2023-04-16T06:15:46.819Z,70.30
2023-04-16T06:18:33.668Z,70.25
2023-04-16T06:21:20.810Z,70.46
2023-04-16T06:24:07.665Z,70.36
2023-04-16T06:26:54.730Z,70.02
2023-04-16T06:29:42.024Z,69.97
2023-04-16T06:32:29.045Z,70.04
2023-04-16T06:35:16.081Z,69.90
2023-04-16T06:38:02.875Z,70.04
2023-04-16T06:40:49.972Z,70.18
2023-04-16T06:43:36.935Z,70.00
2023-04-16T06:46:23.838Z,70.20
2023-04-16T06:49:10.889Z,70.31
2023-04-16T06:51:57.973Z,70.00
2023-04-16T06:54:44.869Z,70.01
2023-04-16T06:57:31.722Z,70.27
2023-04-16T07:00:18.936Z,69.77
2023-04-16T07:03:06.252Z,70.15
2023-04-16T07:05:53.282Z,69.68
2023-04-16T07:08:40.102Z,69.79
2023-04-16T07:11:27.431Z,70.09
2023-04-16T07:14:14.337Z,70.01
2023-04-16T07:17:01.198Z,69.83
2023-04-16T07:19:48.168Z,70.07
2023-04-16T07:22:35.150Z,69.81
2023-04-16T07:25:22.005Z,69.70
2023-04-16T07:28:08.868Z,69.81
2023-04-16T07:30:55.862Z,69.44
2023-04-16T07:33:42.737Z,69.54
2023-04-16T07:36:29.582Z,69.51
2023-04-16T07:39:16.447Z,69.84
2023-04-16T07:42:03.423Z,69.48
2023-04-16T07:44:50.278Z,69.46
2023-04-16T07:47:37.309Z,69.08
2023-04-16T07:50:25.093Z,68.77
2023-04-16T07:53:12.027Z,68.60
2023-04-16T07:55:58.895Z,68.79
2023-04-16T07:58:45.760Z,68.99
2023-04-16T08:01:32.929Z,68.98
2023-04-16T08:04:25.055Z,68.75
2023-04-16T08:07:12.764Z,68.35
2023-04-16T08:09:59.664Z,68.57
2023-04-16T08:12:46.536Z,68.81
2023-04-16T08:15:33.449Z,68.29
2023-04-16T08:18:20.334Z,68.28
2023-04-16T08:21:07.210Z,68.81
2023-04-16T08:23:54.300Z,68.45
2023-04-16T08:26:41.222Z,68.33
2023-04-16T08:29:28.409Z,67.99
2023-04-16T08:32:15.783Z,68.66
2023-04-16T08:35:02.663Z,68.43
2023-04-16T08:37:49.514Z,68.79
2023-04-16T08:40:40.024Z,68.82
2023-04-16T08:43:27.106Z,68.83
2023-04-16T08:46:17.774Z,68.32
2023-04-16T08:49:08.369Z,68.40
2023-04-16T08:51:56.330Z,68.87
2023-04-16T08:55:06.830Z,68.94
2023-04-16T08:58:07.842Z,68.67
2023-04-16T09:00:55.931Z,69.39
2023-04-16T09:03:42.978Z,68.79
2023-04-16T09:06:31.464Z,69.69
2023-04-16T09:09:18.355Z,69.23
2023-04-16T09:12:05.401Z,69.28
2023-04-16T09:14:52.724Z,69.69
2023-04-16T09:17:40.085Z,69.55
2023-04-16T09:20:27.016Z,69.43
2023-04-16T09:23:13.872Z,69.34
2023-04-16T09:26:00.915Z,68.98
2023-04-16T09:28:49.466Z,68.67
2023-04-16T09:31:36.778Z,69.38
2023-04-16T09:34:23.814Z,69.08
2023-04-16T09:37:20.040Z,68.97
2023-04-16T09:40:07.544Z,69.17
2023-04-16T09:42:57.586Z,68.87
2023-04-16T09:45:54.553Z,68.80
2023-04-16T09:48:41.438Z,68.77
2023-04-16T09:51:37.201Z,69.16
2023-04-16T09:54:26.172Z,68.66
2023-04-16T09:57:13.135Z,69.20
2023-04-16T10:00:08.959Z,68.58
2023-04-16T10:03:06.746Z,68.85
2023-04-16T10:05:53.969Z,69.26
2023-04-16T10:08:44.868Z,68.45
2023-04-16T10:11:31.865Z,68.46
2023-04-16T10:14:18.755Z,68.75
2023-04-16T10:17:06.559Z,69.09
2023-04-16T10:19:54.665Z,68.61
2023-04-16T10:22:42.094Z,68.64
2023-04-16T10:25:29.076Z,68.80
2023-04-16T10:28:16.648Z,68.49
2023-04-16T10:31:07.326Z,68.07
2023-04-16T10:33:54.751Z,68.22
2023-04-16T10:36:42.065Z,68.68
2023-04-16T10:39:32.985Z,68.00
2023-04-16T10:42:19.841Z,68.50
2023-04-16T10:45:07.446Z,68.03
2023-04-16T10:47:57.572Z,67.98
2023-04-16T10:50:54.713Z,67.92
2023-04-16T10:53:41.796Z,68.44
2023-04-16T10:56:32.317Z,68.50
2023-04-16T10:59:21.122Z,67.95
2023-04-16T11:02:13.290Z,67.80
2023-04-16T11:05:01.882Z,68.15
2023-04-16T11:07:49.857Z,67.97
2023-04-16T11:10:39.470Z,67.86
2023-04-16T11:13:26.515Z,67.53
2023-04-16T11:16:14.559Z,67.85
2023-04-16T11:19:01.856Z,68.14
2023-04-16T11:21:49.272Z,67.58
2023-04-16T11:24:36.223Z,68.01
2023-04-16T11:27:24.250Z,67.76
2023-04-16T11:30:11.380Z,67.87
2023-04-16T11:32:58.348Z,68.01
2023-04-16T11:35:46.061Z,67.70
2023-04-16T11:38:37.260Z,68.43
2023-04-16T11:41:24.081Z,68.11
2023-04-16T11:44:21.872Z,68.24
2023-04-16T11:47:08.761Z,68.30
2023-04-16T11:49:55.630Z,67.95
2023-04-16T11:52:42.627Z,68.11
2023-04-16T11:55:29.821Z,68.23
2023-04-16T11:58:16.664Z,68.01
2023-04-16T12:01:04.794Z,67.52
2023-04-16T12:04:02.351Z,67.64
2023-04-16T12:07:10.029Z,67.61
2023-04-16T12:10:08.136Z,67.44
2023-04-16T12:12:55.992Z,67.48
2023-04-16T12:15:52.621Z,67.99
2023-04-16T12:18:58.913Z,67.52
2023-04-16T12:21:47.268Z,67.49
2023-04-16T12:24:36.899Z,67.34
2023-04-16T12:27:26.630Z,67.77
2023-04-16T12:30:20.768Z,67.34
2023-04-16T12:33:15.361Z,67.22
2023-04-16T12:36:17.097Z,67.67
2023-04-16T12:39:05.090Z,67.67
2023-04-16T12:41:51.948Z,67.78
2023-04-16T12:44:38.838Z,67.58
2023-04-16T12:47:25.769Z,67.17
2023-04-16T12:50:12.717Z,67.80
2023-04-16T12:52:59.738Z,67.82
2023-04-16T12:55:46.615Z,67.46
2023-04-16T12:58:34.441Z,67.83
2023-04-16T13:01:21.582Z,67.86
2023-04-16T13:04:09.340Z,67.43
2023-04-16T13:06:56.310Z,68.01
2023-04-16T13:09:43.745Z,67.69
2023-04-16T13:12:31.017Z,67.68
2023-04-16T13:15:18.063Z,67.40
2023-04-16T13:18:05.026Z,67.47
2023-04-16T13:20:52.155Z,67.50
2023-04-16T13:23:39.025Z,67.67
2023-04-16T13:26:26.603Z,67.47
2023-04-16T13:29:13.662Z,67.38
2023-04-16T13:32:00.747Z,67.02
2023-04-16T13:34:47.683Z,67.25
2023-04-16T13:37:34.784Z,66.88
2023-04-16T13:40:21.745Z,67.13
2023-04-16T13:43:08.646Z,67.41
2023-04-16T13:45:55.910Z,67.24
2023-04-16T13:48:42.828Z,67.28
2023-04-16T13:51:29.741Z,66.66
2023-04-16T13:54:16.639Z,66.75
2023-04-16T13:57:03.625Z,67.12
2023-04-16T13:59:50.519Z,66.64
2023-04-16T14:02:37.493Z,66.47
2023-04-16T14:05:26.990Z,66.48
2023-04-16T14:08:16.571Z,66.33
2023-04-16T14:11:03.589Z,66.43
2023-04-16T14:13:50.481Z,66.21
2023-04-16T14:16:37.475Z,66.70
2023-04-16T14:19:24.442Z,66.66
2023-04-16T14:22:11.280Z,66.61
2023-04-16T14:24:58.151Z,66.51
2023-04-16T14:27:45.035Z,66.77
2023-04-16T14:30:31.860Z,66.69
2023-04-16T14:33:18.772Z,66.50
2023-04-16T14:36:06.069Z,66.76
2023-04-16T14:38:52.907Z,66.33
2023-04-16T14:41:39.802Z,66.54
2023-04-16T14:44:26.690Z,66.76
2023-04-16T14:47:13.589Z,66.61
2023-04-16T14:50:01.649Z,66.47
2023-04-16T14:52:48.513Z,66.46
2023-04-16T14:55:35.371Z,66.75
2023-04-16T14:58:23.013Z,66.52
2023-04-16T15:01:10.094Z,66.56
2023-04-16T15:03:57.924Z,66.66
2023-04-16T15:06:46.665Z,66.56
2023-04-16T15:09:34.573Z,66.66
2023-04-16T15:12:21.484Z,66.57
2023-04-16T15:15:09.124Z,66.69
2023-04-16T15:17:57.010Z,66.83
2023-04-16T15:20:43.953Z,66.74
2023-04-16T15:23:31.035Z,66.82
2023-04-16T15:26:18.283Z,66.89
2023-04-16T15:29:05.257Z,66.84
2023-04-16T15:31:52.127Z,66.51
2023-04-16T15:34:39.106Z,66.64
2023-04-16T15:37:26.005Z,67.05
2023-04-16T15:40:12.953Z,66.78
2023-04-16T15:42:59.904Z,66.72
2023-04-16T15:45:46.740Z,66.71
2023-04-16T15:48:33.652Z,66.82
2023-04-16T15:51:20.578Z,66.80
2023-04-16T15:54:07.558Z,66.50
2023-04-16T15:56:54.531Z,66.98
2023-04-16T15:59:41.432Z,66.69
2023-04-16T16:02:30.548Z,66.65
2023-04-16T16:05:17.543Z,66.63
2023-04-16T16:08:04.866Z,66.83
2023-04-16T16:10:52.274Z,66.63
2023-04-16T16:13:39.166Z,66.70
2023-04-16T16:16:26.241Z,66.54
2023-04-16T16:19:13.265Z,66.71
2023-04-16T16:22:00.188Z,66.83
2023-04-16T16:24:50.919Z,66.83
2023-04-16T16:27:37.792Z,66.31
2023-04-16T16:30:25.106Z,66.88
2023-04-16T16:33:11.918Z,66.38
2023-04-16T16:35:58.768Z,66.49
2023-04-16T16:38:47.370Z,66.73
2023-04-16T16:41:37.609Z,66.75
2023-04-16T16:44:24.561Z,66.72
2023-04-16T16:47:11.370Z,66.79
2023-04-16T16:49:59.624Z,66.60
2023-04-16T16:52:48.262Z,66.61
2023-04-16T16:55:35.755Z,66.70
2023-04-16T16:58:23.800Z,66.68
2023-04-16T17:01:10.727Z,66.28
2023-04-16T17:03:57.719Z,66.70
2023-04-16T17:06:44.707Z,66.36
2023-04-16T17:09:31.907Z,66.45
2023-04-16T17:12:18.759Z,66.49
2023-04-16T17:15:05.933Z,66.63
2023-04-16T17:17:53.798Z,66.60
2023-04-16T17:20:41.182Z,66.41
2023-04-16T17:23:28.034Z,66.18
2023-04-16T17:26:14.953Z,66.40
2023-04-16T17:29:01.801Z,66.18
2023-04-16T17:31:48.687Z,66.40
2023-04-16T17:34:35.708Z,66.41
2023-04-16T17:37:23.126Z,66.57
2023-04-16T17:40:10.240Z,66.36
2023-04-16T17:42:57.090Z,66.46
2023-04-16T17:45:43.977Z,66.63
2023-04-16T17:48:31.152Z,66.20
2023-04-16T17:51:18.167Z,66.58
2023-04-16T17:54:05.307Z,66.49
2023-04-16T17:56:52.223Z,66.93
2023-04-16T17:59:39.107Z,66.57
2023-04-16T18:02:26.206Z,66.39
2023-04-16T18:05:13.594Z,66.36
2023-04-16T18:08:00.542Z,66.70
2023-04-16T18:10:47.356Z,66.42
2023-04-16T18:13:34.859Z,66.47
2023-04-16T18:16:22.598Z,66.64
2023-04-16T18:19:09.556Z,66.66
2023-04-16T18:21:56.469Z,67.23
2023-04-16T18:24:43.333Z,67.46
2023-04-16T18:27:30.206Z,67.68
2023-04-16T18:30:23.469Z,68.04
2023-04-16T18:36:03.765Z,67.43
2023-04-16T18:39:01.110Z,67.25
2023-04-16T18:41:49.835Z,67.12
2023-04-16T18:44:36.685Z,67.32
2023-04-16T18:47:23.853Z,66.96
2023-04-16T18:50:10.927Z,67.04
2023-04-16T18:52:57.756Z,66.98
2023-04-16T18:55:44.666Z,66.99
2023-04-16T18:58:31.556Z,67.05
2023-04-16T19:01:18.614Z,67.05
2023-04-16T19:04:05.743Z,67.04
2023-04-16T19:06:52.617Z,66.94
2023-04-16T19:09:39.476Z,66.82
2023-04-16T19:12:26.394Z,66.80
2023-04-16T19:15:14.788Z,67.09
2023-04-16T19:18:02.017Z,66.87
2023-04-16T19:20:48.982Z,67.16
2023-04-16T19:23:36.431Z,67.00
2023-04-16T19:26:23.382Z,66.82
2023-04-16T19:29:10.556Z,67.10
2023-04-16T19:31:57.636Z,66.89
2023-04-16T19:34:44.595Z,67.10
2023-04-16T19:37:31.544Z,66.73
2023-04-16T19:40:18.403Z,66.94
2023-04-16T19:43:05.410Z,66.93
2023-04-16T19:45:53.681Z,66.93
2023-04-16T19:48:40.898Z,66.73
2023-04-16T19:51:27.842Z,67.06
2023-04-16T19:54:14.740Z,66.72
2023-04-16T19:57:01.673Z,67.03
2023-04-16T19:59:48.589Z,66.87
2023-04-16T20:02:36.098Z,66.85
2023-04-16T20:05:23.004Z,66.92
2023-04-16T20:08:09.870Z,66.83
2023-04-16T20:10:56.858Z,66.78
2023-04-16T20:13:47.386Z,66.89
2023-04-16T20:16:35.123Z,67.08
2023-04-16T20:19:22.157Z,66.83
2023-04-16T20:22:09.037Z,66.74
2023-04-16T20:24:56.332Z,66.81
2023-04-16T20:27:43.178Z,66.98
2023-04-16T20:30:30.995Z,66.71
2023-04-16T20:33:17.920Z,66.68
2023-04-16T20:36:06.090Z,66.77
2023-04-16T20:38:53.982Z,66.55
2023-04-16T20:41:44.121Z,66.85
2023-04-16T20:44:40.113Z,66.76
2023-04-16T20:47:27.448Z,66.91
2023-04-16T20:50:14.404Z,66.46
2023-04-16T20:53:01.255Z,66.66
2023-04-16T20:55:48.062Z,67.05
2023-04-16T20:58:35.433Z,66.93
2023-04-16T21:01:22.366Z,66.62
2023-04-16T21:04:09.374Z,66.94
2023-04-16T21:06:56.653Z,66.69
2023-04-16T21:09:43.466Z,67.03
2023-04-16T21:12:30.513Z,66.68
2023-04-16T21:15:17.360Z,66.88
2023-04-16T21:18:04.350Z,66.83
2023-04-16T21:20:51.296Z,66.74
2023-04-16T21:23:38.143Z,66.66
2023-04-16T21:26:25.079Z,66.91
2023-04-16T21:29:12.142Z,66.90
2023-04-16T21:31:59.316Z,66.54
2023-04-16T21:34:46.326Z,66.69
2023-04-16T21:37:33.857Z,66.79
2023-04-16T21:40:20.824Z,66.55
2023-04-16T21:43:07.684Z,66.82
2023-04-16T21:45:54.876Z,66.87
2023-04-16T21:48:41.746Z,66.64
2023-04-16T21:51:31.323Z,66.43
2023-04-16T21:54:20.142Z,66.62
2023-04-16T21:57:06.998Z,66.60
2023-04-16T21:59:53.858Z,66.50
2023-04-16T22:02:42.727Z,66.29
2023-04-16T22:05:31.723Z,66.31
2023-04-16T22:08:24.909Z,66.65
2023-04-16T22:11:12.231Z,66.32
2023-04-16T22:13:59.099Z,66.04
2023-04-16T22:16:46.241Z,66.48
2023-04-16T22:19:34.807Z,65.72
2023-04-16T22:22:22.149Z,66.32
2023-04-16T22:25:09.814Z,66.23
2023-04-16T22:27:56.752Z,65.98
2023-04-16T22:30:43.574Z,66.34
2023-04-16T22:33:31.067Z,66.22
2023-04-16T22:36:17.898Z,66.29
2023-04-16T22:39:08.520Z,66.25
2023-04-16T22:41:56.366Z,65.95
2023-04-16T22:44:43.330Z,66.08
2023-04-16T22:47:30.289Z,65.88
2023-04-16T22:50:17.491Z,66.09
2023-04-16T22:53:04.351Z,66.32
2023-04-16T22:55:51.419Z,66.10
2023-04-16T22:58:38.623Z,66.01
2023-04-16T23:01:25.559Z,66.44
2023-04-16T23:04:12.530Z,66.56
2023-04-16T23:06:59.462Z,66.30
2023-04-16T23:09:46.306Z,66.26
2023-04-16T23:12:33.284Z,65.96
2023-04-16T23:15:20.169Z,66.21
2023-04-16T23:18:07.644Z,66.04
2023-04-16T23:20:54.559Z,66.37
2023-04-16T23:23:41.477Z,65.92
2023-04-16T23:26:28.326Z,66.22
2023-04-16T23:29:15.217Z,66.47
2023-04-16T23:32:02.065Z,65.98
2023-04-16T23:34:48.879Z,66.03
2023-04-16T23:37:35.730Z,66.01
2023-04-16T23:40:22.576Z,66.38
2023-04-16T23:43:09.476Z,66.02
2023-04-16T23:45:56.498Z,65.97
2023-04-16T23:48:43.415Z,65.98
2023-04-16T23:51:31.540Z,66.04
2023-04-16T23:54:18.948Z,65.97
2023-04-16T23:57:05.842Z,66.21
2023-04-16T23:59:52.911Z,66.26
